Time;durP1;ratioP1;P1;durP2;ratioP2;P2;SDS_P1;SDS_P2;PMS_P1;PMS_P2;Temp;Humidity;BMP_temperature;BMP_pressure;BME280_temperature;BME280_humidity;BME280_pressure;Samples;Min_cycle;Max_cycle;Signal;HPM_P1;HPM_P2
2022/05/22 00:00:20;;;;;;;9.38;3.97;;;11.30;99.90;;;;;;4961846;28;20073;-82
2022/05/22 00:02:46;;;;;;;14.07;5.18;;;11.30;99.90;;;;;;5010378;28;20125;-82
2022/05/22 00:05:15;;;;;;;10.55;3.00;;;11.30;99.90;;;;;;5010305;28;20142;-82
2022/05/22 00:07:40;;;;;;;14.98;3.90;;;11.30;99.90;;;;;;4977807;28;20407;-81
2022/05/22 00:10:06;;;;;;;14.75;4.53;;;11.20;99.90;;;;;;4977624;28;20038;-82
2022/05/22 00:12:32;;;;;;;11.70;4.35;;;11.20;99.90;;;;;;4993913;28;20082;-81
2022/05/22 00:14:58;;;;;;;11.13;4.95;;;11.20;99.90;;;;;;4977679;28;20069;-82
2022/05/22 00:17:23;;;;;;;11.98;4.43;;;11.20;99.90;;;;;;5010033;28;20458;-81
2022/05/22 00:19:49;;;;;;;10.65;4.68;;;11.20;99.90;;;;;;4993421;28;20456;-82
2022/05/22 00:22:14;;;;;;;11.93;4.53;;;11.20;99.90;;;;;;4993702;28;20519;-82
2022/05/22 00:24:40;;;;;;;11.18;4.88;;;11.20;99.90;;;;;;5009810;28;20042;-82
2022/05/22 00:27:06;;;;;;;11.88;4.25;;;11.10;99.90;;;;;;5009944;28;20046;-82
2022/05/22 00:29:32;;;;;;;11.75;4.30;;;11.20;99.90;;;;;;4993380;28;20121;-82
2022/05/22 00:31:58;;;;;;;10.07;4.30;;;11.10;99.90;;;;;;4993497;28;20125;-82
2022/05/22 00:34:25;;;;;;;12.25;4.15;;;11.10;99.90;;;;;;4977289;28;20038;-82
2022/05/22 00:36:50;;;;;;;13.40;4.40;;;11.10;99.90;;;;;;4993687;28;20045;-82
2022/05/22 00:39:16;;;;;;;10.77;3.42;;;11.10;99.90;;;;;;4977063;28;20042;-82
2022/05/22 00:41:49;;;;;;;11.23;4.28;;;11.10;99.90;;;;;;4977153;28;20078;-82
2022/05/22 00:44:15;;;;;;;11.13;4.57;;;11.10;99.90;;;;;;4977404;28;20057;-82
2022/05/22 00:46:40;;;;;;;14.00;4.07;;;11.10;99.90;;;;;;5009783;28;20416;-82
2022/05/22 00:49:08;;;;;;;15.52;6.78;;;11.10;99.90;;;;;;5009072;28;20444;-82
2022/05/22 00:51:40;;;;;;;11.73;4.32;;;11.10;99.90;;;;;;4992596;28;20045;-82
2022/05/22 00:54:19;;;;;;;9.33;3.90;;;11.10;99.90;;;;;;5009782;28;20038;-82
2022/05/22 00:57:00;;;;;;;11.07;3.90;;;11.10;99.90;;;;;;4977123;28;20030;-82
2022/05/22 00:59:29;;;;;;;14.10;4.72;;;11.00;99.90;;;;;;4976441;28;20038;-82
2022/05/22 01:01:58;;;;;;;111.78;9.82;;;11.00;99.90;;;;;;4976712;28;20508;-82
2022/05/22 01:04:28;;;;;;;7.88;3.38;;;10.90;99.90;;;;;;4976551;28;20097;-82
2022/05/22 01:06:54;;;;;;;8.48;3.45;;;10.90;99.90;;;;;;4992892;28;20042;-82
2022/05/22 01:09:19;;;;;;;9.45;4.20;;;10.80;99.90;;;;;;4992596;28;20113;-82
2022/05/22 01:11:48;;;;;;;11.60;4.30;;;10.80;99.90;;;;;;4992798;28;20511;-81
2022/05/22 01:14:19;;;;;;;7.00;2.83;;;10.80;99.90;;;;;;4976820;28;20392;-82
2022/05/22 01:16:45;;;;;;;10.85;4.32;;;10.80;99.90;;;;;;5008992;28;20053;-82
2022/05/22 01:19:15;;;;;;;10.50;4.30;;;10.70;99.90;;;;;;5008572;28;20038;-82
2022/05/22 01:21:47;;;;;;;11.40;5.70;;;10.80;99.90;;;;;;4976646;28;20385;-82
2022/05/22 01:24:13;;;;;;;9.85;4.32;;;10.80;99.90;;;;;;4992562;28;20117;-82
2022/05/22 01:26:38;;;;;;;7.93;3.03;;;10.70;99.90;;;;;;5008867;28;20468;-82
2022/05/22 01:29:04;;;;;;;8.18;4.50;;;10.70;99.90;;;;;;4991982;28;20042;-82
2022/05/22 01:31:30;;;;;;;33.88;4.35;;;10.80;99.90;;;;;;4976450;28;20044;-82
2022/05/22 01:33:55;;;;;;;8.10;2.90;;;10.70;99.90;;;;;;4992321;28;20165;-81
2022/05/22 01:36:21;;;;;;;8.90;3.40;;;10.70;99.90;;;;;;5009058;28;20088;-82
2022/05/22 01:38:46;;;;;;;12.80;4.95;;;10.60;99.90;;;;;;4992194;28;20515;-81
2022/05/22 01:41:12;;;;;;;13.02;4.05;;;10.60;99.90;;;;;;5009005;28;20492;-82
2022/05/22 01:43:38;;;;;;;12.40;4.30;;;10.60;99.90;;;;;;5008494;28;20129;-82
2022/05/22 01:46:03;;;;;;;8.93;4.13;;;10.50;99.90;;;;;;5008578;28;20057;-82
2022/05/22 01:48:29;;;;;;;11.75;4.55;;;10.60;99.90;;;;;;5008277;28;20100;-82
2022/05/22 01:50:55;;;;;;;10.52;4.97;;;10.60;99.90;;;;;;5008420;28;20038;-81
2022/05/22 01:53:21;;;;;;;11.02;5.75;;;10.60;99.90;;;;;;5008350;28;20089;-82
2022/05/22 01:55:50;;;;;;;10.38;4.20;;;10.60;99.90;;;;;;4991977;28;20031;-82
2022/05/22 01:58:16;;;;;;;14.52;5.57;;;10.60;99.90;;;;;;5007806;28;20073;-82
2022/05/22 02:00:41;;;;;;;13.52;4.85;;;10.60;99.90;;;;;;4959719;28;20065;-82
2022/05/22 02:03:07;;;;;;;8.98;3.80;;;10.50;99.90;;;;;;4974837;28;20046;-82
2022/05/22 02:05:34;;;;;;;8.10;3.15;;;10.50;99.90;;;;;;4975846;28;20058;-82
2022/05/22 02:08:19;;;;;;;5.90;2.25;;;10.40;99.90;;;;;;4991368;28;20042;-82
2022/05/22 02:10:53;;;;;;;7.00;2.25;;;10.40;99.90;;;;;;4975685;28;20038;-82
2022/05/22 02:13:24;;;;;;;5.28;2.00;;;10.30;99.90;;;;;;4991728;28;20038;-82
2022/05/22 02:15:50;;;;;;;6.78;2.60;;;10.20;99.90;;;;;;4975418;28;20034;-82
2022/05/22 02:18:16;;;;;;;6.63;2.38;;;10.20;99.90;;;;;;4975026;28;20035;-82
2022/05/22 02:20:42;;;;;;;11.65;3.53;;;10.10;99.90;;;;;;4975523;28;20056;-82
2022/05/22 02:23:08;;;;;;;9.30;4.50;;;10.10;99.90;;;;;;4975201;28;20038;-82
2022/05/22 02:25:37;;;;;;;7.68;3.22;;;10.10;99.90;;;;;;4975065;28;20054;-82
2022/05/22 02:28:05;;;;;;;9.75;3.30;;;10.10;99.90;;;;;;4990887;28;20042;-82
2022/05/22 02:30:34;;;;;;;10.95;4.35;;;10.10;99.90;;;;;;4975117;28;20073;-82
2022/05/22 02:33:00;;;;;;;9.35;3.83;;;10.10;99.90;;;;;;5007703;28;20125;-82
2022/05/22 02:35:25;;;;;;;9.90;3.92;;;10.10;99.90;;;;;;4959055;28;20181;-82
2022/05/22 02:37:54;;;;;;;11.95;3.83;;;10.10;99.90;;;;;;5007258;28;20034;-82
2022/05/22 02:40:22;;;;;;;10.68;4.43;;;10.10;99.90;;;;;;4975315;28;20108;-82
2022/05/22 02:42:50;;;;;;;11.05;4.00;;;10.10;99.90;;;;;;4975064;28;20118;-82
2022/05/22 02:45:19;;;;;;;9.52;5.03;;;10.10;99.90;;;;;;5007571;28;20504;-82
2022/05/22 02:47:45;;;;;;;12.48;4.47;;;10.10;99.90;;;;;;4958525;28;20046;-82
2022/05/22 02:50:12;;;;;;;7.30;3.58;;;10.10;99.90;;;;;;4991096;28;20046;-82
2022/05/22 02:52:38;;;;;;;13.18;4.72;;;10.10;99.90;;;;;;5007485;28;20117;-82
2022/05/22 02:55:05;;;;;;;9.48;4.47;;;10.10;99.90;;;;;;4974880;28;20459;-82
2022/05/22 02:57:37;;;;;;;11.75;4.90;;;10.10;99.90;;;;;;5007240;28;20039;-82
2022/05/22 03:00:09;;;;;;;9.50;4.28;;;10.10;99.90;;;;;;4974832;28;20092;-82
2022/05/22 03:02:34;;;;;;;11.50;4.30;;;10.00;99.90;;;;;;4975141;28;20408;-82
2022/05/22 03:05:00;;;;;;;10.05;4.00;;;10.00;99.90;;;;;;5007123;28;20549;-81
2022/05/22 03:07:26;;;;;;;10.80;4.05;;;10.00;99.90;;;;;;4974943;28;20038;-82
2022/05/22 03:09:51;;;;;;;8.40;3.50;;;9.90;99.90;;;;;;5007110;28;20812;-82
2022/05/22 03:12:20;;;;;;;6.82;2.47;;;9.80;99.90;;;;;;4991251;28;20049;-82
2022/05/22 03:14:49;;;;;;;5.75;1.90;;;9.80;99.90;;;;;;5009202;28;20039;-82
2022/05/22 03:17:15;;;;;;;8.68;2.90;;;9.70;99.90;;;;;;4978641;28;20503;-82
2022/05/22 03:19:41;;;;;;;6.50;2.42;;;9.70;99.90;;;;;;4962366;28;20088;-82
2022/05/22 03:22:07;;;;;;;7.50;2.63;;;9.70;99.90;;;;;;4994807;28;20133;-82
2022/05/22 03:24:34;;;;;;;6.82;1.80;;;9.60;99.90;;;;;;4994769;28;20042;-82
2022/05/22 03:27:04;;;;;;;7.13;1.90;;;9.50;99.90;;;;;;4978532;28;20127;-82
2022/05/22 03:29:30;;;;;;;3.05;1.23;;;9.50;99.90;;;;;;5010701;28;20101;-82
2022/05/22 03:31:56;;;;;;;6.53;2.10;;;9.40;99.90;;;;;;5010989;28;20451;-82
2022/05/22 03:34:22;;;;;;;6.65;1.85;;;9.40;99.90;;;;;;4994379;28;20038;-82
2022/05/22 03:36:47;;;;;;;4.55;1.67;;;9.30;99.90;;;;;;5010995;28;20038;-82
2022/05/22 03:39:13;;;;;;;7.88;3.30;;;9.30;99.90;;;;;;5010565;28;20695;-82
2022/05/22 03:41:39;;;;;;;7.47;2.47;;;9.30;99.90;;;;;;4962246;28;20404;-82
2022/05/22 03:44:05;;;;;;;7.32;2.45;;;9.30;99.90;;;;;;4994673;28;20039;-82
2022/05/22 03:46:32;;;;;;;5.57;2.10;;;9.30;99.90;;;;;;5010914;28;20046;-82
2022/05/22 03:48:58;;;;;;;8.15;2.47;;;9.30;99.90;;;;;;4977532;28;20049;-82
2022/05/22 03:51:23;;;;;;;7.95;2.53;;;9.30;99.90;;;;;;5010659;28;20129;-82
2022/05/22 03:53:49;;;;;;;7.07;2.15;;;9.30;99.90;;;;;;5010616;28;20043;-82
2022/05/22 03:56:16;;;;;;;6.50;1.98;;;9.30;99.90;;;;;;5010409;28;20041;-82
2022/05/22 03:58:43;;;;;;;7.38;3.08;;;9.20;99.90;;;;;;4977650;28;20030;-81
2022/05/22 04:01:09;;;;;;;4.30;1.65;;;9.30;99.90;;;;;;4994053;28;20050;-81
2022/05/22 04:03:35;;;;;;;4.03;1.42;;;9.20;99.90;;;;;;4978040;28;20046;-82
2022/05/22 04:06:03;;;;;;;3.95;1.33;;;9.20;99.90;;;;;;4994256;28;20439;-81
2022/05/22 04:08:29;;;;;;;3.80;1.38;;;9.20;99.90;;;;;;4977772;28;20046;-81
2022/05/22 04:10:55;;;;;;;1.73;1.08;;;9.20;99.90;;;;;;4977631;28;20080;-82
2022/05/22 04:13:21;;;;;;;6.20;1.73;;;9.10;99.90;;;;;;4977715;28;20043;-81
2022/05/22 04:15:46;;;;;;;4.63;1.65;;;9.20;99.90;;;;;;4961479;28;20045;-82
2022/05/22 04:18:13;;;;;;;8.35;1.40;;;9.20;99.90;;;;;;5009793;28;20042;-81
2022/05/22 04:20:39;;;;;;;16.50;2.05;;;9.20;99.90;;;;;;5010147;28;20137;-81
2022/05/22 04:25:57;;;;;;;3.80;1.23;;;9.20;99.90;;;;;;5009276;28;20119;-81
2022/05/22 04:28:24;;;;;;;4.05;1.13;;;9.10;99.90;;;;;;4976943;28;20514;-81
2022/05/22 04:30:50;;;;;;;11.05;1.73;;;9.10;99.90;;;;;;4977209;28;20408;-81
2022/05/22 04:33:16;;;;;;;4.35;1.55;;;9.10;99.90;;;;;;4977308;28;20088;-82
2022/05/22 04:35:43;;;;;;;3.47;1.30;;;9.20;99.90;;;;;;4961258;28;20034;-81
2022/05/22 04:38:10;;;;;;;3.38;1.27;;;9.10;99.90;;;;;;4993136;28;20030;-82
2022/05/22 04:40:37;;;;;;;3.53;1.30;;;9.10;99.90;;;;;;4993437;28;20057;-82
2022/05/22 04:43:04;;;;;;;3.85;1.35;;;9.20;99.90;;;;;;4977340;28;20436;-82
2022/05/22 04:45:30;;;;;;;3.67;1.52;;;9.20;99.90;;;;;;4977191;28;20081;-82
2022/05/22 04:47:56;;;;;;;5.32;1.40;;;9.10;99.90;;;;;;4976816;28;20061;-82
2022/05/22 04:50:22;;;;;;;3.75;1.60;;;9.20;99.90;;;;;;4976995;28;20496;-82
2022/05/22 04:52:48;;;;;;;6.32;1.83;;;9.20;99.90;;;;;;5009538;28;20065;-81
2022/05/22 04:55:13;;;;;;;5.28;1.83;;;9.20;99.90;;;;;;4977072;28;20132;-82
2022/05/22 04:57:39;;;;;;;7.75;2.38;;;9.30;99.90;;;;;;5009079;28;20177;-81
2022/05/22 05:00:06;;;;;;;6.03;2.42;;;9.30;99.90;;;;;;4961005;28;20101;-82
2022/05/22 05:02:32;;;;;;;8.18;3.85;;;9.40;99.90;;;;;;4993236;28;20034;-81
2022/05/22 05:04:58;;;;;;;8.30;2.97;;;9.50;99.90;;;;;;4993128;28;20093;-82
2022/05/22 05:07:24;;;;;;;9.20;3.90;;;9.50;99.90;;;;;;4976872;28;20050;-82
2022/05/22 05:09:50;;;;;;;11.90;5.22;;;9.60;99.90;;;;;;4992698;28;20116;-82
2022/05/22 05:12:16;;;;;;;12.18;5.05;;;9.70;99.90;;;;;;4960507;28;20495;-81
2022/05/22 05:14:42;;;;;;;14.18;5.65;;;9.80;99.90;;;;;;4993069;28;20448;-82
2022/05/22 05:17:13;;;;;;;11.43;5.63;;;9.90;99.90;;;;;;4976524;28;20523;-81
2022/05/22 05:19:39;;;;;;;14.95;7.57;;;10.00;99.90;;;;;;4976108;28;20125;-82
2022/05/22 05:22:05;;;;;;;14.10;6.95;;;10.10;99.90;;;;;;4992847;28;20132;-82
2022/05/22 05:24:31;;;;;;;14.38;7.72;;;10.20;99.90;;;;;;4992514;28;20049;-82
2022/05/22 05:26:56;;;;;;;16.55;8.85;;;10.20;99.90;;;;;;4992557;28;20034;-82
2022/05/22 05:29:23;;;;;;;17.45;8.75;;;10.30;99.90;;;;;;5008407;28;20042;-82
2022/05/22 05:31:49;;;;;;;13.85;8.60;;;10.40;99.90;;;;;;4993969;28;20046;-80
2022/05/22 05:34:15;;;;;;;17.33;8.75;;;10.60;99.90;;;;;;4960062;28;20030;-81
2022/05/22 05:36:41;;;;;;;15.00;7.65;;;10.70;99.90;;;;;;4976081;28;20038;-81
2022/05/22 05:39:09;;;;;;;18.10;8.68;;;10.70;99.90;;;;;;4975919;28;20038;-82
2022/05/22 05:41:35;;;;;;;18.70;8.43;;;10.80;99.90;;;;;;5008822;28;20033;-81
2022/05/22 05:44:07;;;;;;;15.57;7.95;;;10.90;99.90;;;;;;5008602;28;20097;-81
2022/05/22 05:46:34;;;;;;;15.70;7.07;;;11.00;99.90;;;;;;4976240;28;20133;-82
2022/05/22 05:49:00;;;;;;;12.25;6.72;;;11.10;99.90;;;;;;5008158;28;20049;-81
2022/05/22 05:51:26;;;;;;;16.13;7.72;;;11.20;99.90;;;;;;5008637;28;20034;-81
2022/05/22 05:53:51;;;;;;;15.48;6.70;;;11.30;99.90;;;;;;4992169;28;20034;-82
2022/05/22 05:56:17;;;;;;;17.13;6.85;;;11.40;99.90;;;;;;4992012;28;20085;-82
2022/05/22 05:58:42;;;;;;;16.52;7.18;;;11.50;99.90;;;;;;4991630;28;20074;-82
2022/05/22 06:01:13;;;;;;;14.43;6.28;;;11.50;99.90;;;;;;4975779;28;20053;-82
2022/05/22 06:03:38;;;;;;;15.60;6.95;;;11.60;99.90;;;;;;4991857;28;20125;-82
2022/05/22 06:06:09;;;;;;;14.52;6.40;;;11.70;99.90;;;;;;4991781;28;20128;-83
2022/05/22 06:08:35;;;;;;;14.25;6.50;;;11.80;99.90;;;;;;4991465;28;20042;-82
2022/05/22 06:11:01;;;;;;;14.48;6.80;;;11.90;99.90;;;;;;5007987;28;20046;-82
2022/05/22 06:13:26;;;;;;;13.70;6.72;;;12.00;99.90;;;;;;4991623;28;20044;-82
2022/05/22 06:15:52;;;;;;;12.98;5.97;;;12.10;99.90;;;;;;4975490;28;20042;-82
2022/05/22 06:18:19;;;;;;;14.48;6.72;;;12.20;99.90;;;;;;4975066;28;20035;-82
2022/05/22 06:20:45;;;;;;;15.20;6.18;;;12.30;99.90;;;;;;4975359;28;20039;-82
2022/05/22 06:23:10;;;;;;;13.75;5.80;;;12.40;99.90;;;;;;4975351;28;20050;-83
2022/05/22 06:25:36;;;;;;;15.50;7.40;;;12.50;99.90;;;;;;4975368;28;20053;-83
2022/05/22 06:28:02;;;;;;;19.05;7.18;;;12.60;99.90;;;;;;4974995;28;20054;-83
2022/05/22 06:30:28;;;;;;;16.83;6.43;;;12.70;99.90;;;;;;4975210;28;20042;-83
2022/05/22 06:32:54;;;;;;;14.95;5.88;;;12.80;99.90;;;;;;4991432;28;20053;-83
2022/05/22 06:35:20;;;;;;;14.75;5.50;;;12.90;99.90;;;;;;4988628;28;20404;-83
2022/05/22 06:37:46;;;;;;;15.80;7.32;;;12.90;99.90;;;;;;4974543;28;20138;-82
2022/05/22 06:40:12;;;;;;;17.45;5.85;;;13.10;99.90;;;;;;4984649;28;20489;-83
2022/05/22 06:42:40;;;;;;;16.35;6.80;;;13.20;99.90;;;;;;4985658;28;20080;-83
2022/05/22 06:45:15;;;;;;;17.90;7.40;;;13.20;99.90;;;;;;4976968;28;20046;-83
2022/05/22 06:47:42;;;;;;;14.90;6.38;;;13.30;99.90;;;;;;4974910;28;20038;-83
2022/05/22 06:50:12;;;;;;;15.27;6.38;;;13.40;99.90;;;;;;4958288;28;20045;-83
2022/05/22 06:52:38;;;;;;;18.45;7.53;;;13.40;99.90;;;;;;4974979;28;20058;-83
2022/05/22 06:55:05;;;;;;;15.05;6.30;;;13.60;99.90;;;;;;4975074;28;20042;-83
2022/05/22 06:57:32;;;;;;;13.77;7.55;;;13.70;99.90;;;;;;4974685;28;20035;-83
2022/05/22 06:59:59;;;;;;;19.27;6.88;;;13.70;99.90;;;;;;4958685;28;20049;-83
2022/05/22 07:02:29;;;;;;;14.48;4.85;;;13.70;99.90;;;;;;4974797;28;20570;-83
2022/05/22 07:05:01;;;;;;;15.45;4.70;;;13.80;99.90;;;;;;4958657;28;20045;-83
2022/05/22 07:07:27;;;;;;;13.43;4.53;;;13.90;99.90;;;;;;4974640;28;20085;-83
2022/05/22 07:09:53;;;;;;;17.08;5.47;;;13.90;99.90;;;;;;4958576;28;20074;-83
2022/05/22 07:12:19;;;;;;;16.50;5.20;;;14.00;99.90;;;;;;4958943;28;20038;-83
2022/05/22 07:14:48;;;;;;;12.65;4.20;;;14.10;99.90;;;;;;4958639;28;20099;-83
2022/05/22 07:17:15;;;;;;;14.27;5.43;;;14.20;99.90;;;;;;4958978;28;20483;-83
2022/05/22 07:19:44;;;;;;;15.98;5.45;;;14.30;99.90;;;;;;4958500;28;20070;-83
2022/05/22 07:22:10;;;;;;;16.30;5.47;;;14.40;99.90;;;;;;4974817;28;20085;-83
2022/05/22 07:24:36;;;;;;;15.20;5.32;;;14.40;99.90;;;;;;4975135;28;20089;-83
2022/05/22 07:27:02;;;;;;;16.85;4.70;;;14.50;99.90;;;;;;4974911;28;20046;-83
2022/05/22 07:29:28;;;;;;;17.33;4.78;;;14.60;99.90;;;;;;4974260;28;20042;-83
2022/05/22 07:31:54;;;;;;;12.90;4.25;;;14.60;99.90;;;;;;4974578;28;20043;-83
2022/05/22 07:34:20;;;;;;;13.73;3.92;;;14.60;99.90;;;;;;4974807;28;20049;-83
2022/05/22 07:36:46;;;;;;;14.80;4.35;;;14.70;99.90;;;;;;4974640;28;20045;-83
2022/05/22 07:39:12;;;;;;;15.98;5.28;;;14.80;99.90;;;;;;4974234;28;20039;-83
2022/05/22 07:41:38;;;;;;;12.82;4.38;;;14.80;99.90;;;;;;4958935;28;20038;-83
2022/05/22 07:44:04;;;;;;;14.52;4.40;;;14.90;99.90;;;;;;4974433;28;20521;-83
2022/05/22 07:46:29;;;;;;;14.85;5.03;;;15.00;99.90;;;;;;4974558;28;20475;-83
2022/05/22 07:48:55;;;;;;;17.08;5.30;;;15.00;99.90;;;;;;4974140;28;20407;-84
2022/05/22 07:51:21;;;;;;;13.80;5.05;;;15.10;99.90;;;;;;4974426;28;20050;-83
2022/05/22 07:53:46;;;;;;;17.30;5.70;;;15.20;99.90;;;;;;4974694;28;20097;-83
2022/05/22 07:56:13;;;;;;;12.77;4.72;;;15.30;99.90;;;;;;4974477;28;20042;-84
2022/05/22 07:58:39;;;;;;;15.48;4.85;;;15.30;99.90;;;;;;4973978;28;20080;-83
2022/05/22 08:01:05;;;;;;;16.08;4.47;;;15.40;99.90;;;;;;4974997;28;20484;-83
2022/05/22 08:03:32;;;;;;;13.57;4.10;;;15.40;99.90;;;;;;4977894;28;20045;-84
2022/05/22 08:05:58;;;;;;;13.63;4.30;;;15.50;99.90;;;;;;4978093;28;20069;-83
2022/05/22 08:08:24;;;;;;;13.10;4.18;;;15.50;99.90;;;;;;4961430;28;20039;-83
2022/05/22 08:10:51;;;;;;;13.43;5.15;;;15.60;99.90;;;;;;4977730;28;20042;-83
2022/05/22 08:13:17;;;;;;;12.65;4.40;;;15.70;99.90;;;;;;4977571;28;20038;-83
2022/05/22 08:15:43;;;;;;;12.85;4.18;;;15.70;99.90;;;;;;4977967;28;20049;-83
2022/05/22 08:18:09;;;;;;;13.50;4.05;;;15.80;99.90;;;;;;4977244;28;20042;-83
2022/05/22 08:20:37;;;;;;;11.13;4.25;;;15.80;99.90;;;;;;4977590;28;20042;-83
2022/05/22 08:23:10;;;;;;;12.35;4.57;;;15.90;99.90;;;;;;4977509;28;20133;-83
2022/05/22 08:25:36;;;;;;;11.07;3.85;;;16.00;99.90;;;;;;4977530;28;20046;-83
2022/05/22 08:28:04;;;;;;;12.43;3.92;;;16.00;99.90;;;;;;4977166;28;20049;-83
2022/05/22 08:30:30;;;;;;;13.43;4.03;;;16.10;99.90;;;;;;4977381;28;20046;-83
2022/05/22 08:32:56;;;;;;;14.18;4.45;;;16.20;99.90;;;;;;4961344;28;20038;-84
2022/05/22 08:35:27;;;;;;;11.23;3.75;;;16.20;99.90;;;;;;4977278;28;20031;-83
2022/05/22 08:37:53;;;;;;;11.27;3.95;;;16.40;99.90;;;;;;4976856;28;20133;-83
2022/05/22 08:40:21;;;;;;;12.23;3.97;;;16.40;99.90;;;;;;4977177;28;20042;-83
2022/05/22 08:42:50;;;;;;;13.90;3.75;;;16.50;99.90;;;;;;4976449;28;20038;-83
2022/05/22 08:45:21;;;;;;;11.85;3.92;;;16.50;99.90;;;;;;4959036;28;20085;-83
2022/05/22 08:48:01;;;;;;;11.63;3.50;;;16.70;99.90;;;;;;4975784;28;20042;-84
2022/05/22 08:50:29;;;;;;;13.50;3.28;;;16.70;99.90;;;;;;4976221;28;20066;-84
2022/05/22 08:53:00;;;;;;;13.63;4.18;;;16.80;99.90;;;;;;4976035;28;20030;-83
2022/05/22 09:01:12;;;;;;;14.07;3.83;;;17.00;99.90;;;;;;4976833;28;20042;-84
2022/05/22 09:03:51;;;;;;;12.90;3.53;;;17.20;99.90;;;;;;4976981;28;20049;-83
2022/05/22 09:06:26;;;;;;;11.80;3.90;;;17.40;99.90;;;;;;4976807;28;20044;-84
2022/05/22 09:08:51;;;;;;;15.18;4.07;;;17.50;99.90;;;;;;4976378;28;20042;-84
2022/05/22 09:11:50;;;;;;;12.45;3.92;;;17.60;99.90;;;;;;4976624;28;20096;-83
2022/05/22 09:14:23;;;;;;;12.40;3.60;;;17.60;99.90;;;;;;4975126;28;20039;-83
2022/05/22 09:17:12;;;;;;;12.98;3.10;;;17.50;99.90;;;;;;4976750;28;20405;-83
2022/05/22 09:19:46;;;;;;;9.75;2.58;;;17.60;99.90;;;;;;4975800;28;20512;-84
2022/05/22 09:22:14;;;;;;;10.98;3.58;;;17.70;99.90;;;;;;4976356;28;20038;-84
2022/05/22 09:25:02;;;;;;;9.10;2.50;;;17.80;99.90;;;;;;4976655;28;20042;-83
2022/05/22 09:28:00;;;;;;;10.23;2.55;;;17.70;99.90;;;;;;4976208;28;20045;-84
2022/05/22 09:30:41;;;;;;;11.88;3.03;;;17.60;99.90;;;;;;4976161;28;20046;-84
2022/05/22 09:33:49;;;;;;;10.73;2.63;;;17.60;99.90;;;;;;4960505;28;20042;-84
2022/05/22 09:36:45;;;;;;;10.73;2.72;;;17.80;99.90;;;;;;4960121;28;20439;-84
2022/05/22 09:39:35;;;;;;;10.95;2.97;;;17.90;99.90;;;;;;4975843;28;20124;-84
2022/05/22 09:42:27;;;;;;;11.05;2.75;;;18.00;99.90;;;;;;4976345;28;20072;-83
2022/05/22 09:45:06;;;;;;;11.10;3.15;;;18.10;99.90;;;;;;4976351;28;20050;-83
2022/05/22 09:47:49;;;;;;;13.77;3.10;;;18.10;99.90;;;;;;4959646;28;20067;-84
2022/05/22 09:50:34;;;;;;;;;;;18.20;99.90;;;;;;4976274;28;20132;-84
2022/05/22 09:53:03;;;;;;;10.80;3.08;;;18.20;99.90;;;;;;4975889;28;19925;-84
2022/05/22 09:55:50;;;;;;;12.07;3.22;;;18.30;99.90;;;;;;4975697;28;20081;-83
2022/05/22 09:58:37;;;;;;;13.25;3.92;;;18.50;99.90;;;;;;4975488;28;20042;-84
2022/05/22 10:01:27;;;;;;;14.57;3.10;;;18.70;99.90;;;;;;4975823;28;20046;-84
2022/05/22 10:04:20;;;;;;;9.02;2.38;;;18.90;99.90;;;;;;4959834;28;20522;-84
2022/05/22 10:07:09;;;;;;;;;;;19.00;99.90;;;;;;4976117;28;20495;-84
2022/05/22 10:09:43;;;;;;;12.32;2.78;;;19.00;99.90;;;;;;4959299;28;20395;-84
2022/05/22 10:12:30;;;;;;;10.55;3.33;;;19.10;99.90;;;;;;4975338;28;20042;-84
2022/05/22 10:15:02;;;;;;;11.02;3.38;;;19.20;99.10;;;;;;4975687;28;20042;-84
2022/05/22 10:17:57;;;;;;;9.50;2.58;;;19.20;99.90;;;;;;4975319;28;20041;-84
2022/05/22 10:20:29;;;;;;;11.63;2.85;;;19.30;98.40;;;;;;4975682;28;20093;-84
2022/05/22 10:23:35;;;;;;;11.52;2.92;;;19.40;98.50;;;;;;4975364;28;20120;-84
2022/05/22 10:26:39;;;;;;;11.27;2.60;;;19.50;98.20;;;;;;4959275;28;20539;-84
2022/05/22 10:29:15;;;;;;;10.95;2.67;;;19.60;96.40;;;;;;4974962;28;20385;-84
2022/05/22 10:31:50;;;;;;;9.88;2.30;;;19.50;98.60;;;;;;4975323;28;20393;-84
2022/05/22 10:34:25;;;;;;;9.77;2.90;;;19.50;96.60;;;;;;4959071;28;20050;-84
2022/05/22 10:36:57;;;;;;;8.93;2.47;;;19.40;95.70;;;;;;4959038;28;20484;-84
2022/05/22 10:39:23;;;;;;;10.73;3.20;;;19.30;98.00;;;;;;4975045;28;20157;-83
2022/05/22 10:44:46;;;;;;;9.82;2.38;;;19.10;96.50;;;;;;4975360;28;20051;-84
2022/05/22 10:47:12;;;;;;;11.30;2.88;;;19.00;95.90;;;;;;4975034;28;20038;-84
2022/05/22 10:49:44;;;;;;;9.43;2.58;;;19.00;96.30;;;;;;4958440;28;20084;-84
2022/05/22 10:52:30;;;;;;;10.38;2.78;;;19.10;96.90;;;;;;4975092;28;20038;-84
2022/05/22 10:54:56;;;;;;;10.85;2.25;;;19.20;96.80;;;;;;4975172;28;20039;-84
2022/05/22 10:57:26;;;;;;;11.00;2.30;;;19.30;95.90;;;;;;4974959;28;20484;-84
2022/05/22 10:59:52;;;;;;;9.70;2.25;;;19.40;95.40;;;;;;4974647;28;20042;-84
2022/05/22 11:02:30;;;;;;;11.43;3.28;;;19.50;95.50;;;;;;4958992;28;20046;-84
2022/05/22 11:04:57;;;;;;;11.15;2.60;;;19.70;96.60;;;;;;4959025;28;20050;-84
2022/05/22 11:07:42;;;;;;;10.70;2.47;;;19.70;94.70;;;;;;4974913;28;20443;-84
2022/05/22 11:10:21;;;;;;;10.48;2.30;;;19.80;95.20;;;;;;4958807;28;20065;-84
2022/05/22 11:12:59;;;;;;;9.32;2.67;;;19.90;94.50;;;;;;4974843;28;20473;-84
2022/05/22 11:15:34;;;;;;;9.75;2.38;;;20.00;94.50;;;;;;4959024;28;20034;-84
2022/05/22 11:18:21;;;;;;;10.50;2.65;;;20.10;96.90;;;;;;4958287;28;20065;-84
2022/05/22 11:21:03;;;;;;;9.55;2.20;;;20.40;96.60;;;;;;4974714;28;20042;-85
2022/05/22 11:23:59;;;;;;;9.95;2.50;;;20.50;92.80;;;;;;4958656;28;20046;-84
2022/05/22 11:27:01;;;;;;;10.00;2.65;;;20.50;92.60;;;;;;4974979;28;20091;-84
2022/05/22 11:29:52;;;;;;;9.65;2.13;;;20.40;92.70;;;;;;4974479;28;20061;-84
2022/05/22 11:32:36;;;;;;;8.48;2.20;;;20.50;94.10;;;;;;4974634;28;20041;-85
2022/05/22 11:35:24;;;;;;;9.10;1.92;;;20.70;93.80;;;;;;4975456;28;20100;-85
2022/05/22 11:38:14;;;;;;;9.32;2.20;;;20.80;91.50;;;;;;4978418;28;20105;-84
2022/05/22 11:40:49;;;;;;;8.02;2.22;;;20.80;85.10;;;;;;4978618;28;20053;-85
2022/05/22 11:44:02;;;;;;;9.98;2.10;;;20.90;83.80;;;;;;4978229;28;20042;-85
2022/05/22 11:46:47;;;;;;;;;;;20.90;83.80;;;;;;4972038;28;20050;-85
2022/05/22 11:49:29;;;;;;;11.18;2.60;;;20.90;84.20;;;;;;4961831;28;20287;-85
2022/05/22 11:52:53;;;;;;;8.88;2.10;;;21.00;86.70;;;;;;4977974;28;20133;-84
2022/05/22 11:55:22;;;;;;;9.18;1.90;;;21.20;83.10;;;;;;4976544;28;20117;-84
2022/05/22 11:58:27;;;;;;;8.98;2.03;;;21.30;81.40;;;;;;4977730;28;20042;-84
2022/05/22 12:01:09;;;;;;;10.63;2.38;;;21.40;77.30;;;;;;4977331;28;20145;-85
2022/05/22 12:04:16;;;;;;;7.47;1.90;;;21.60;80.40;;;;;;4978428;28;20050;-85
2022/05/22 12:06:46;;;;;;;8.23;1.85;;;21.70;76.40;;;;;;4961533;28;20093;-85
2022/05/22 12:09:28;;;;;;;6.30;1.70;;;21.70;70.70;;;;;;4961331;28;20046;-84
2022/05/22 12:12:12;;;;;;;7.53;1.80;;;21.70;67.60;;;;;;4977778;28;20042;-85
2022/05/22 12:15:03;;;;;;;8.85;1.92;;;21.70;67.20;;;;;;4978003;28;20137;-85
2022/05/22 12:17:39;;;;;;;8.43;1.90;;;21.60;68.40;;;;;;4977343;28;20046;-85
2022/05/22 12:20:22;;;;;;;8.10;1.90;;;21.60;73.00;;;;;;4977926;28;20046;-84
2022/05/22 12:23:08;;;;;;;9.70;2.00;;;21.80;71.90;;;;;;4977103;28;20049;-84
2022/05/22 12:25:40;;;;;;;7.25;1.92;;;21.90;69.40;;;;;;4958411;28;20053;-84
2022/05/22 12:28:35;;;;;;;9.18;1.92;;;22.00;70.50;;;;;;4971514;28;20039;-85
2022/05/22 12:31:04;;;;;;;6.28;1.88;;;22.10;68.30;;;;;;4963982;28;20148;-85
2022/05/22 12:33:33;;;;;;;9.98;2.20;;;22.10;68.70;;;;;;4961541;28;20035;-85
2022/05/22 12:35:59;;;;;;;9.07;2.20;;;22.20;66.80;;;;;;4977420;28;20042;-85
2022/05/22 12:38:25;;;;;;;8.38;2.00;;;22.10;66.90;;;;;;4960633;28;20396;-84
2022/05/22 12:41:10;;;;;;;10.88;2.33;;;22.20;68.50;;;;;;4977287;28;20038;-85
2022/05/22 12:43:36;;;;;;;8.52;2.70;;;22.40;68.60;;;;;;4961393;28;20069;-85
2022/05/22 12:46:04;;;;;;;8.13;1.90;;;22.50;66.40;;;;;;4977105;28;20389;-84
2022/05/22 12:48:33;;;;;;;8.40;2.10;;;22.70;68.40;;;;;;4975799;28;20519;-85
2022/05/22 12:51:10;;;;;;;7.90;1.95;;;22.80;67.00;;;;;;4977050;28;20530;-85
2022/05/22 12:53:42;;;;;;;7.68;1.83;;;22.90;67.50;;;;;;4976880;28;20046;-84
2022/05/22 12:56:20;;;;;;;7.15;1.77;;;23.00;66.10;;;;;;4977002;28;20057;-85
2022/05/22 12:58:56;;;;;;;7.80;1.92;;;23.10;65.80;;;;;;4993992;28;20390;-85
2022/05/22 13:01:32;;;;;;;8.35;2.10;;;23.10;65.30;;;;;;4976937;28;20082;-85
2022/05/22 13:04:01;;;;;;;8.27;2.20;;;23.20;65.40;;;;;;4976804;28;20526;-85
2022/05/22 13:06:36;;;;;;;9.35;2.22;;;23.20;65.80;;;;;;4960758;28;20512;-85
2022/05/22 13:09:06;;;;;;;8.65;2.08;;;23.10;65.60;;;;;;4976515;28;20042;-85
2022/05/22 13:11:44;;;;;;;10.15;2.70;;;23.00;63.70;;;;;;4976674;28;20065;-85
2022/05/22 13:14:26;;;;;;;8.55;1.95;;;22.90;63.20;;;;;;4976884;28;20492;-84